Time;durP1;ratioP1;P1;durP2;ratioP2;P2;SDS_P1;SDS_P2;PMS_P1;PMS_P2;Temp;Humidity;BMP_temperature;BMP_pressure;BME280_temperature;BME280_humidity;BME280_pressure;Samples;Min_cycle;Max_cycle;Signal;HPM_P1;HPM_P2
2021/11/06 00:01:24;;;;;;;9.83;2.90;;;9.00;89.90;;;;;;5065858;28;20171;-91
2021/11/06 00:03:50;;;;;;;5.73;2.17;;;8.90;89.90;;;;;;5069789;28;20171;-91
2021/11/06 00:06:16;;;;;;;13.50;2.30;;;8.90;89.90;;;;;;5071365;28;20230;-92
2021/11/06 00:08:42;;;;;;;7.23;2.30;;;9.00;89.80;;;;;;5069043;28;20171;-92
2021/11/06 00:11:08;;;;;;;8.37;2.00;;;9.00;89.80;;;;;;5071775;28;20174;-92
2021/11/06 00:13:34;;;;;;;10.67;2.43;;;8.90;89.80;;;;;;5072851;28;20244;-91
2021/11/06 00:15:59;;;;;;;14.03;2.90;;;9.00;89.90;;;;;;5070422;28;20207;-91
2021/11/06 00:18:25;;;;;;;4.33;2.10;;;9.00;90.00;;;;;;5064079;28;20211;-91
2021/11/06 00:20:51;;;;;;;10.63;2.20;;;8.90;89.90;;;;;;5057970;28;20182;-91
2021/11/06 00:23:17;;;;;;;5.13;1.93;;;9.00;89.90;;;;;;5057441;28;20207;-89
2021/11/06 00:25:43;;;;;;;7.13;2.30;;;9.00;89.80;;;;;;5058594;28;20264;-92
2021/11/06 00:28:09;;;;;;;14.73;2.10;;;8.90;89.90;;;;;;5056670;28;20183;-92
2021/11/06 00:30:35;;;;;;;9.80;2.67;;;8.90;89.80;;;;;;5056966;28;20681;-92
2021/11/06 00:33:01;;;;;;;9.83;2.33;;;8.90;90.00;;;;;;5058502;28;20179;-91
2021/11/06 00:35:27;;;;;;;11.53;2.30;;;8.90;90.30;;;;;;5059074;28;20651;-91
2021/11/06 00:37:53;;;;;;;8.97;2.40;;;8.90;90.40;;;;;;5058402;28;20221;-93
2021/11/06 00:40:19;;;;;;;7.67;2.77;;;8.90;90.50;;;;;;5058675;28;20179;-91
2021/11/06 00:42:45;;;;;;;11.03;2.33;;;8.80;90.80;;;;;;5059515;28;20179;-92
2021/11/06 00:45:12;;;;;;;7.60;2.10;;;8.80;90.40;;;;;;5062912;28;20206;-92
2021/11/06 00:47:38;;;;;;;14.07;2.70;;;8.90;90.40;;;;;;5059580;28;20228;-91
2021/11/06 00:50:07;;;;;;;9.87;2.57;;;8.90;90.30;;;;;;5061101;28;20184;-92
2021/11/06 00:52:33;;;;;;;9.67;2.57;;;8.90;90.20;;;;;;5061825;28;20185;-93
2021/11/06 00:54:59;;;;;;;7.50;2.13;;;8.90;90.40;;;;;;5061029;28;20190;-92
2021/11/06 00:57:25;;;;;;;5.67;2.50;;;8.90;90.50;;;;;;5060080;28;20199;-92
2021/11/06 00:59:50;;;;;;;7.37;1.90;;;8.80;90.60;;;;;;5062853;28;20274;-93
2021/11/06 01:02:16;;;;;;;7.43;2.57;;;8.80;90.90;;;;;;5064050;28;20183;-92
2021/11/06 01:04:42;;;;;;;9.27;2.37;;;8.80;90.90;;;;;;5062751;28;20203;-92
2021/11/06 01:07:08;;;;;;;11.47;2.57;;;8.80;91.00;;;;;;5063883;28;20191;-93
2021/11/06 01:09:34;;;;;;;7.90;2.47;;;8.80;91.20;;;;;;5062645;28;20175;-92
2021/11/06 01:11:59;;;;;;;6.73;2.97;;;8.80;91.10;;;;;;5061369;28;20171;-91
2021/11/06 01:14:25;;;;;;;9.17;2.30;;;8.80;90.80;;;;;;5061580;28;20175;-91
2021/11/06 01:16:51;;;;;;;11.87;2.83;;;8.90;90.30;;;;;;5059206;28;20574;-91
2021/11/06 01:19:17;;;;;;;7.77;2.20;;;8.90;90.00;;;;;;5059823;28;20179;-91
2021/11/06 01:21:42;;;;;;;7.07;2.40;;;8.90;89.90;;;;;;5061229;28;20209;-92
2021/11/06 01:24:09;;;;;;;12.73;2.47;;;8.90;89.70;;;;;;5059331;28;20183;-91
2021/11/06 01:26:35;;;;;;;9.60;2.23;;;8.90;89.70;;;;;;5058450;28;20226;-91
2021/11/06 01:29:02;;;;;;;7.97;2.27;;;8.90;89.80;;;;;;5058669;28;20178;-91
2021/11/06 01:31:28;;;;;;;8.03;2.30;;;8.90;89.80;;;;;;5058803;28;20179;-91
2021/11/06 01:33:54;;;;;;;10.87;2.27;;;8.90;89.80;;;;;;5058889;28;20180;-92
2021/11/06 01:36:20;;;;;;;4.40;2.40;;;8.90;89.70;;;;;;5059186;28;20564;-93
2021/11/06 01:38:46;;;;;;;6.70;2.70;;;8.90;90.00;;;;;;5060131;28;20179;-91
2021/11/06 01:41:12;;;;;;;13.00;3.80;;;8.90;90.40;;;;;;5063068;28;20252;-91
2021/11/06 01:43:39;;;;;;;15.97;4.07;;;8.90;90.50;;;;;;5060146;28;20210;-91
2021/11/06 01:46:07;;;;;;;12.20;3.40;;;8.90;90.20;;;;;;5064350;28;20324;-90
2021/11/06 01:48:33;;;;;;;7.60;2.97;;;8.90;90.20;;;;;;5062380;28;20589;-90
2021/11/06 01:51:00;;;;;;;6.27;2.70;;;8.80;90.50;;;;;;5059672;28;20270;-92
2021/11/06 01:53:26;;;;;;;10.00;2.57;;;8.80;91.00;;;;;;5059443;28;20180;-90
2021/11/06 01:55:54;;;;;;;14.83;3.00;;;8.70;91.20;;;;;;5059274;28;20577;-91
2021/11/06 01:58:26;;;;;;;5.53;2.77;;;8.70;91.20;;;;;;5059199;28;20179;-91
2021/11/06 02:00:52;;;;;;;10.67;2.80;;;8.70;90.90;;;;;;5060014;28;20531;-91
2021/11/06 02:03:18;;;;;;;9.43;3.37;;;8.80;90.70;;;;;;5060603;28;20199;-92
2021/11/06 02:05:44;;;;;;;13.37;2.77;;;8.80;90.70;;;;;;5061734;28;20294;-92
2021/11/06 02:08:13;;;;;;;12.30;4.37;;;8.80;90.70;;;;;;5062370;28;20176;-92
2021/11/06 02:10:40;;;;;;;7.00;2.70;;;8.90;90.50;;;;;;5062587;28;20643;-92
2021/11/06 02:13:06;;;;;;;12.07;4.00;;;8.80;90.70;;;;;;5062216;28;20187;-91
2021/11/06 02:15:32;;;;;;;8.63;3.17;;;8.80;90.50;;;;;;5061278;28;20195;-91
2021/11/06 02:17:57;;;;;;;11.93;2.97;;;8.90;90.40;;;;;;5062006;28;20233;-91
2021/11/06 02:20:23;;;;;;;11.33;3.53;;;8.80;90.60;;;;;;5061371;28;20192;-91
2021/11/06 02:22:50;;;;;;;10.57;3.13;;;8.90;90.50;;;;;;5061959;28;20206;-91
2021/11/06 02:25:17;;;;;;;11.33;2.50;;;8.90;90.40;;;;;;5062162;28;20200;-92
2021/11/06 02:27:43;;;;;;;11.40;2.90;;;8.90;90.40;;;;;;5061486;28;20241;-91
2021/11/06 02:30:12;;;;;;;8.60;2.60;;;8.90;90.50;;;;;;5061830;28;20179;-92
2021/11/06 02:32:38;;;;;;;7.93;4.97;;;8.90;90.40;;;;;;5061619;28;20183;-91
2021/11/06 02:35:05;;;;;;;11.10;2.90;;;8.90;90.30;;;;;;5062365;28;20605;-92
2021/11/06 02:37:31;;;;;;;13.27;3.00;;;8.90;90.40;;;;;;5062299;28;20529;-92
2021/11/06 02:39:56;;;;;;;5.33;2.30;;;8.90;90.50;;;;;;5064483;28;20213;-92
2021/11/06 02:42:22;;;;;;;9.07;2.50;;;8.90;90.70;;;;;;5064126;28;20552;-91
2021/11/06 02:44:48;;;;;;;8.07;2.83;;;8.80;91.00;;;;;;5064189;28;20203;-93
2021/11/06 02:47:14;;;;;;;13.40;2.77;;;8.80;91.00;;;;;;5064585;28;20203;-92
2021/11/06 02:49:40;;;;;;;11.67;3.20;;;8.80;91.20;;;;;;5062154;28;20176;-92
2021/11/06 02:52:06;;;;;;;11.03;3.23;;;8.80;91.30;;;;;;5062686;28;20543;-90
2021/11/06 02:54:32;;;;;;;8.40;3.27;;;8.80;91.30;;;;;;5063719;28;20172;-93
2021/11/06 02:56:58;;;;;;;10.00;3.30;;;8.80;91.20;;;;;;5062007;28;20199;-92
2021/11/06 02:59:24;;;;;;;13.20;3.73;;;8.80;91.30;;;;;;5061715;28;20175;-92
2021/11/06 03:01:50;;;;;;;16.00;3.57;;;8.80;91.20;;;;;;5061383;28;20171;-93
2021/11/06 03:04:16;;;;;;;12.27;3.63;;;8.80;91.20;;;;;;5062679;28;20176;-92
2021/11/06 03:06:42;;;;;;;6.93;2.83;;;8.80;91.30;;;;;;5061851;28;20202;-90
2021/11/06 03:09:09;;;;;;;13.40;4.03;;;8.80;91.40;;;;;;5064109;28;20175;-92
2021/11/06 03:11:36;;;;;;;17.73;4.57;;;8.80;91.50;;;;;;5062612;28;20172;-90
2021/11/06 03:14:05;;;;;;;10.90;3.57;;;8.80;91.40;;;;;;5062937;28;20175;-92
2021/11/06 03:16:31;;;;;;;8.40;3.50;;;8.80;91.10;;;;;;5062424;28;20242;-92
2021/11/06 03:18:57;;;;;;;9.13;3.60;;;8.90;90.90;;;;;;5064057;28;20179;-92
2021/11/06 03:21:27;;;;;;;10.27;3.13;;;8.90;90.80;;;;;;5063470;28;20197;-91
2021/11/06 03:23:53;;;;;;;13.53;4.50;;;8.90;90.80;;;;;;5081325;28;20209;-91
2021/11/06 03:26:18;;;;;;;5.87;3.50;;;8.80;90.70;;;;;;5064724;28;20211;-91
2021/11/06 03:28:44;;;;;;;10.47;4.50;;;8.80;90.70;;;;;;5061871;28;20175;-91
2021/11/06 03:31:10;;;;;;;8.10;4.10;;;8.80;90.60;;;;;;5062973;28;20187;-92
2021/11/06 03:33:35;;;;;;;12.37;4.30;;;8.90;90.60;;;;;;5063491;28;20183;-92
2021/11/06 03:36:01;;;;;;;10.47;3.80;;;8.90;90.60;;;;;;5080709;28;20198;-91
2021/11/06 03:38:27;;;;;;;10.97;3.73;;;8.90;90.60;;;;;;5062076;28;20179;-92
2021/11/06 03:40:53;;;;;;;11.27;3.90;;;8.90;90.80;;;;;;5063974;28;20179;-92
2021/11/06 03:43:19;;;;;;;11.47;3.90;;;8.80;90.80;;;;;;5063720;28;20554;-91
2021/11/06 03:45:45;;;;;;;10.10;3.80;;;8.80;90.90;;;;;;5062372;28;20199;-91
2021/11/06 03:48:10;;;;;;;8.20;3.60;;;8.80;91.00;;;;;;5063049;28;20231;-91
2021/11/06 03:50:36;;;;;;;7.37;3.30;;;8.80;91.00;;;;;;5062359;28;20176;-92
2021/11/06 03:53:02;;;;;;;9.10;3.57;;;8.80;91.00;;;;;;5063364;28;20171;-91
2021/11/06 03:55:28;;;;;;;12.83;4.33;;;8.80;91.20;;;;;;5063538;28;20226;-92
2021/11/06 03:57:54;;;;;;;10.70;4.17;;;8.80;91.40;;;;;;5064046;28;20195;-92
2021/11/06 04:00:21;;;;;;;8.87;4.57;;;8.80;91.40;;;;;;5062303;28;20175;-92
2021/11/06 04:02:48;;;;;;;7.83;4.30;;;8.80;91.40;;;;;;5064095;28;20175;-92
2021/11/06 04:05:15;;;;;;;7.20;4.23;;;8.70;91.50;;;;;;5062550;28;20293;-92
2021/11/06 04:07:41;;;;;;;11.93;4.37;;;8.70;91.60;;;;;;5062440;28;20593;-91
2021/11/06 04:10:08;;;;;;;11.27;4.73;;;8.70;91.50;;;;;;5063414;28;20543;-93
2021/11/06 04:12:35;;;;;;;9.83;5.67;;;8.70;91.70;;;;;;5064275;28;20167;-92
2021/11/06 04:15:02;;;;;;;7.93;4.50;;;8.70;91.70;;;;;;5065897;28;20229;-92
2021/11/06 04:17:27;;;;;;;6.63;4.50;;;8.80;91.70;;;;;;5081999;28;20207;-92
2021/11/06 04:19:53;;;;;;;8.80;3.90;;;8.70;91.80;;;;;;5064162;28;20693;-93
2021/11/06 04:22:19;;;;;;;8.10;4.90;;;8.70;91.80;;;;;;5065391;28;20211;-92
2021/11/06 04:24:44;;;;;;;8.43;3.83;;;8.80;91.90;;;;;;5064961;28;20211;-92
2021/11/06 04:27:10;;;;;;;11.97;5.00;;;8.70;91.90;;;;;;5064435;28;20218;-92
2021/11/06 04:29:36;;;;;;;9.13;4.37;;;8.70;92.00;;;;;;5064775;28;20171;-92
2021/11/06 04:32:04;;;;;;;12.63;4.10;;;8.70;92.00;;;;;;5064062;28;20179;-91
2021/11/06 04:34:29;;;;;;;11.60;4.17;;;8.70;91.90;;;;;;5065762;28;20167;-92
2021/11/06 04:36:55;;;;;;;15.47;5.33;;;8.70;92.00;;;;;;5066800;28;20255;-92
2021/11/06 04:39:21;;;;;;;9.80;4.93;;;8.70;92.10;;;;;;5064556;28;20218;-92
2021/11/06 04:41:46;;;;;;;12.07;4.50;;;8.60;92.10;;;;;;5064580;28;20179;-93
2021/11/06 04:44:12;;;;;;;15.03;5.07;;;8.60;92.20;;;;;;5066359;28;20198;-92
2021/11/06 04:46:38;;;;;;;13.10;4.60;;;8.60;92.20;;;;;;5064725;28;20236;-93
2021/11/06 04:49:03;;;;;;;12.13;5.50;;;8.60;92.30;;;;;;5063966;28;20175;-91
2021/11/06 04:51:29;;;;;;;6.63;4.60;;;8.50;92.30;;;;;;5065491;28;20198;-91
2021/11/06 04:53:55;;;;;;;12.90;5.33;;;8.50;92.30;;;;;;5064141;28;20210;-92
2021/11/06 04:56:21;;;;;;;12.20;5.30;;;8.60;92.30;;;;;;5063938;28;20218;-93
2021/11/06 04:58:47;;;;;;;10.70;5.20;;;8.50;92.30;;;;;;5063761;28;20187;-92
2021/11/06 05:01:12;;;;;;;12.27;5.67;;;8.50;92.40;;;;;;5063626;28;20205;-92
2021/11/06 05:03:38;;;;;;;17.40;5.83;;;8.50;92.30;;;;;;5062938;28;20183;-91
2021/11/06 05:06:04;;;;;;;13.10;5.73;;;8.50;92.20;;;;;;5063906;28;20302;-92
2021/11/06 05:08:30;;;;;;;15.87;6.27;;;8.50;92.30;;;;;;5064633;28;20190;-92
2021/11/06 05:10:55;;;;;;;9.77;5.77;;;8.50;92.30;;;;;;5064967;28;20190;-93
2021/11/06 05:13:21;;;;;;;14.40;5.93;;;8.50;92.40;;;;;;5064631;28;20181;-92
2021/11/06 05:15:47;;;;;;;9.63;5.23;;;8.50;92.30;;;;;;5064262;28;20195;-92
2021/11/06 05:18:14;;;;;;;10.70;6.60;;;8.50;92.30;;;;;;5064779;28;20167;-93
2021/11/06 05:20:42;;;;;;;14.80;5.67;;;8.40;92.30;;;;;;5067266;28;20606;-93
2021/11/06 05:23:08;;;;;;;15.13;6.43;;;8.50;92.20;;;;;;5069436;28;20176;-92
2021/11/06 05:25:33;;;;;;;11.33;5.80;;;8.50;92.20;;;;;;5068625;28;20214;-93
2021/11/06 05:27:59;;;;;;;16.17;7.17;;;8.40;92.30;;;;;;5070236;28;20183;-92
2021/11/06 05:30:25;;;;;;;10.53;6.63;;;8.40;92.20;;;;;;5068183;28;20176;-91
2021/11/06 05:32:51;;;;;;;17.17;7.23;;;8.40;92.20;;;;;;5070421;28;20190;-91
2021/11/06 05:35:17;;;;;;;10.93;6.17;;;8.40;92.20;;;;;;5068909;28;20179;-93
2021/11/06 05:37:42;;;;;;;10.20;7.37;;;8.30;92.10;;;;;;5068252;28;20195;-90
2021/11/06 05:40:10;;;;;;;9.13;7.13;;;8.40;92.00;;;;;;5068260;28;20183;-91
2021/11/06 05:42:36;;;;;;;15.33;8.20;;;8.30;92.00;;;;;;5067505;28;20183;-92
2021/11/06 05:45:03;;;;;;;19.07;8.40;;;8.30;91.90;;;;;;5067538;28;20214;-90
2021/11/06 05:47:29;;;;;;;15.73;8.43;;;8.30;91.90;;;;;;5066794;28;20191;-91
2021/11/06 05:49:55;;;;;;;13.13;8.13;;;8.30;91.90;;;;;;5067318;28;20210;-92
2021/11/06 05:52:21;;;;;;;10.57;8.47;;;8.30;91.90;;;;;;5067625;28;20250;-93
2021/11/06 05:54:47;;;;;;;19.40;8.97;;;8.30;92.00;;;;;;5068318;28;20588;-91
2021/11/06 05:57:12;;;;;;;15.43;8.43;;;8.30;92.00;;;;;;5067701;28;20305;-92
2021/11/06 05:59:38;;;;;;;15.00;8.17;;;8.30;91.90;;;;;;5067306;28;20678;-92
2021/11/06 06:02:04;;;;;;;15.27;8.67;;;8.30;91.80;;;;;;5066986;28;20181;-92
2021/11/06 06:04:30;;;;;;;17.57;9.20;;;8.30;91.80;;;;;;5068926;28;20181;-92
2021/11/06 06:06:55;;;;;;;17.50;9.47;;;8.30;91.90;;;;;;5070578;28;20710;-92
2021/11/06 06:09:21;;;;;;;16.10;8.47;;;8.30;91.90;;;;;;5071356;28;20210;-92
2021/11/06 06:11:47;;;;;;;15.57;9.93;;;8.30;91.90;;;;;;5070324;28;20205;-92
2021/11/06 06:14:12;;;;;;;16.13;9.57;;;8.30;91.90;;;;;;5069050;28;20180;-91
2021/11/06 06:16:38;;;;;;;21.43;10.00;;;8.30;91.90;;;;;;5069402;28;20282;-92
2021/11/06 06:19:04;;;;;;;14.80;9.93;;;8.30;91.90;;;;;;5068736;28;20211;-92
2021/11/06 06:21:30;;;;;;;16.90;9.77;;;8.30;91.90;;;;;;5067720;28;20210;-92
2021/11/06 06:23:57;;;;;;;16.07;10.07;;;8.40;91.80;;;;;;5067465;28;20207;-92
2021/11/06 06:26:23;;;;;;;18.20;10.53;;;8.40;91.70;;;;;;5068252;28;20211;-92
2021/11/06 06:28:48;;;;;;;18.23;9.90;;;8.40;91.70;;;;;;5067753;28;20616;-91
2021/11/06 06:31:15;;;;;;;17.53;9.67;;;8.50;91.70;;;;;;5068605;28;20190;-91
2021/11/06 06:33:41;;;;;;;20.87;11.30;;;8.50;91.70;;;;;;5067769;28;20195;-92
2021/11/06 06:36:06;;;;;;;17.50;10.53;;;8.50;91.70;;;;;;5070414;28;20248;-92
2021/11/06 06:38:33;;;;;;;18.83;11.43;;;8.50;91.80;;;;;;5068357;28;20270;-93
2021/11/06 06:40:59;;;;;;;15.93;10.57;;;8.50;91.80;;;;;;5068895;28;20187;-92
2021/11/06 06:43:25;;;;;;;14.37;10.03;;;8.50;91.70;;;;;;5068422;28;20179;-92
2021/11/06 06:45:51;;;;;;;22.83;11.07;;;8.50;91.80;;;;;;5069515;28;20234;-92
2021/11/06 06:48:17;;;;;;;19.50;10.70;;;8.50;91.70;;;;;;5070141;28;20183;-92
2021/11/06 06:50:51;;;;;;;17.57;11.47;;;8.50;91.70;;;;;;5067754;28;20199;-91
2021/11/06 06:53:19;;;;;;;18.73;10.40;;;8.50;91.70;;;;;;5066130;28;20204;-92
2021/11/06 06:55:45;;;;;;;22.53;12.30;;;8.50;91.70;;;;;;5065949;28;20180;-91
2021/11/06 06:58:11;;;;;;;20.70;11.43;;;8.40;91.70;;;;;;5067835;28;20229;-92
2021/11/06 07:00:37;;;;;;;16.43;11.20;;;8.40;91.80;;;;;;5068844;28;20184;-91
2021/11/06 07:03:03;;;;;;;22.00;12.70;;;8.40;91.90;;;;;;5069009;28;20540;-92
2021/11/06 07:05:29;;;;;;;15.67;11.07;;;8.40;91.80;;;;;;5072141;28;20271;-91
2021/11/06 07:07:57;;;;;;;23.80;13.27;;;8.40;91.90;;;;;;5074875;28;20191;-92
2021/11/06 07:10:24;;;;;;;19.03;12.50;;;8.40;91.90;;;;;;5077086;28;20172;-92
2021/11/06 07:12:50;;;;;;;17.23;11.03;;;8.50;91.90;;;;;;5078164;28;20175;-92
2021/11/06 07:15:15;;;;;;;20.13;13.10;;;8.50;91.90;;;;;;5076822;28;20186;-92
2021/11/06 07:17:41;;;;;;;24.07;13.93;;;8.50;91.90;;;;;;5074094;28;20274;-92
2021/11/06 07:20:09;;;;;;;21.07;12.60;;;8.50;91.80;;;;;;5073819;28;20298;-93
2021/11/06 07:22:35;;;;;;;21.07;14.53;;;8.60;91.60;;;;;;5078133;28;20176;-92
2021/11/06 07:25:03;;;;;;;22.03;12.77;;;8.60;91.70;;;;;;5078758;28;20271;-92
2021/11/06 07:27:31;;;;;;;17.17;10.30;;;8.70;91.60;;;;;;5078195;28;20206;-93
2021/11/06 07:29:57;;;;;;;23.67;14.07;;;8.70;91.60;;;;;;5077733;28;20176;-92
2021/11/06 07:32:22;;;;;;;24.17;13.53;;;8.70;91.60;;;;;;5077886;28;20167;-92
2021/11/06 07:34:48;;;;;;;26.07;11.90;;;8.60;91.70;;;;;;5077709;28;20182;-92
2021/11/06 07:37:14;;;;;;;27.70;13.60;;;8.70;91.60;;;;;;5078475;28;20209;-92
2021/11/06 07:39:40;;;;;;;21.10;13.83;;;8.70;91.60;;;;;;5079369;28;20189;-92
2021/11/06 07:42:05;;;;;;;22.10;14.40;;;8.70;91.60;;;;;;5078592;28;20183;-92
2021/11/06 07:44:31;;;;;;;28.83;16.13;;;8.70;91.70;;;;;;5080309;28;20198;-92
2021/11/06 07:46:57;;;;;;;24.70;13.60;;;8.70;91.70;;;;;;5079165;28;20233;-92
2021/11/06 07:49:23;;;;;;;22.53;16.73;;;8.80;91.60;;;;;;5079195;28;20191;-92
2021/11/06 07:51:49;;;;;;;26.73;16.43;;;8.80;91.60;;;;;;5080357;28;20176;-92
2021/11/06 07:54:14;;;;;;;23.80;17.07;;;8.80;91.50;;;;;;5078966;28;20175;-92
2021/11/06 07:56:40;;;;;;;29.20;17.23;;;8.90;91.60;;;;;;5078858;28;20242;-92
2021/11/06 07:59:06;;;;;;;30.27;18.00;;;8.90;91.60;;;;;;5077115;28;20178;-93
2021/11/06 08:01:32;;;;;;;31.20;18.13;;;8.90;91.40;;;;;;5077032;28;20225;-92
2021/11/06 08:03:58;;;;;;;28.17;17.53;;;8.90;91.40;;;;;;5076427;28;20179;-93
2021/11/06 08:06:24;;;;;;;28.13;19.00;;;8.90;91.50;;;;;;5077318;28;20294;-92
2021/11/06 08:08:49;;;;;;;25.43;16.80;;;9.00;91.50;;;;;;5077520;28;20244;-92
2021/11/06 08:11:15;;;;;;;23.17;17.10;;;9.00;91.60;;;;;;5076008;28;20171;-92
2021/11/06 08:13:41;;;;;;;24.50;15.90;;;9.00;91.50;;;;;;5076639;28;20167;-93
2021/11/06 08:16:07;;;;;;;29.47;19.13;;;9.00;91.50;;;;;;5078711;28;20211;-93
2021/11/06 08:18:33;;;;;;;29.27;19.93;;;9.00;91.60;;;;;;5077854;28;20167;-92
2021/11/06 08:20:58;;;;;;;27.93;20.63;;;9.10;91.50;;;;;;5077632;28;20175;-93
2021/11/06 08:23:25;;;;;;;35.13;20.97;;;9.10;91.30;;;;;;5074457;28;20174;-92
2021/11/06 08:25:51;;;;;;;33.97;18.67;;;9.00;91.20;;;;;;5075284;28;20213;-91
2021/11/06 08:28:17;;;;;;;30.67;18.60;;;9.10;91.50;;;;;;5069757;28;20189;-92
2021/11/06 08:30:43;;;;;;;26.03;19.53;;;9.10;91.30;;;;;;5068891;28;20179;-92
2021/11/06 08:33:10;;;;;;;32.13;21.00;;;9.10;91.30;;;;;;5068362;28;20232;-91
2021/11/06 08:35:37;;;;;;;35.43;20.90;;;9.10;91.10;;;;;;5069227;28;20187;-92
2021/11/06 08:38:04;;;;;;;30.33;22.90;;;9.20;91.20;;;;;;5069218;28;20201;-92
2021/11/06 08:40:30;;;;;;;22.73;17.43;;;9.20;91.20;;;;;;5071679;28;20188;-91
2021/11/06 08:42:56;;;;;;;21.47;16.23;;;9.20;91.20;;;;;;5075753;28;20183;-92
2021/11/06 08:45:22;;;;;;;29.50;19.90;;;9.30;91.10;;;;;;5075245;28;20214;-92
2021/11/06 08:47:48;;;;;;;25.67;17.50;;;9.30;91.20;;;;;;5074315;28;20205;-92
2021/11/06 08:50:21;;;;;;;32.70;22.63;;;9.30;90.80;;;;;;5075860;28;20199;-93
2021/11/06 08:52:48;;;;;;;32.93;22.60;;;9.30;90.90;;;;;;5074284;28;20206;-92
2021/11/06 08:55:15;;;;;;;30.90;22.07;;;9.30;91.10;;;;;;5076514;28;20175;-91
2021/11/06 08:57:41;;;;;;;28.93;22.37;;;9.30;90.80;;;;;;5073867;28;20202;-92
2021/11/06 09:00:18;;;;;;;40.93;24.67;;;9.40;90.70;;;;;;5077650;28;20183;-92
2021/11/06 09:02:44;;;;;;;36.40;25.00;;;9.40;90.80;;;;;;5072916;28;20167;-92
2021/11/06 09:05:11;;;;;;;34.30;26.17;;;9.40;90.70;;;;;;5070027;28;20207;-91
2021/11/06 09:07:37;;;;;;;30.67;24.73;;;9.50;90.70;;;;;;5074014;28;20187;-92
2021/11/06 09:10:07;;;;;;;26.10;19.50;;;9.50;90.50;;;;;;5071114;28;20175;-91
2021/11/06 09:12:33;;;;;;;22.57;17.73;;;9.50;90.40;;;;;;5069165;28;20176;-92
2021/11/06 09:15:00;;;;;;;37.50;24.23;;;9.50;90.40;;;;;;5070065;28;20191;-92
2021/11/06 09:17:26;;;;;;;35.93;23.43;;;9.50;90.60;;;;;;5067883;28;20216;-92
2021/11/06 09:19:51;;;;;;;36.07;24.00;;;9.50;90.40;;;;;;5067815;28;20272;-91
2021/11/06 09:22:18;;;;;;;30.43;22.17;;;9.50;90.30;;;;;;5069329;28;20179;-92
2021/11/06 09:24:44;;;;;;;33.30;24.37;;;9.60;90.40;;;;;;5069649;28;20171;-92
2021/11/06 09:27:11;;;;;;;33.37;19.70;;;9.60;90.20;;;;;;5071271;28;20192;-92
2021/11/06 09:29:37;;;;;;;35.87;23.40;;;9.60;90.20;;;;;;5070067;28;20182;-91
2021/11/06 09:32:03;;;;;;;31.87;22.57;;;9.60;90.10;;;;;;5072091;28;20598;-92
2021/11/06 09:34:29;;;;;;;28.77;21.57;;;9.70;90.40;;;;;;5066287;28;20179;-92
2021/11/06 09:36:56;;;;;;;37.70;25.03;;;9.70;90.40;;;;;;5067724;28;20675;-92
2021/11/06 09:39:21;;;;;;;36.50;23.33;;;9.70;90.00;;;;;;5066962;28;20177;-92
2021/11/06 09:41:47;;;;;;;31.07;25.17;;;9.70;90.40;;;;;;5069311;28;20188;-92
2021/11/06 09:44:13;;;;;;;32.00;23.77;;;9.80;90.50;;;;;;5069624;28;20183;-91
2021/11/06 09:46:39;;;;;;;31.63;24.27;;;9.70;90.00;;;;;;5068128;28;20222;-93
2021/11/06 09:49:05;;;;;;;29.53;24.87;;;9.80;90.00;;;;;;5073368;28;20176;-92
2021/11/06 09:51:30;;;;;;;30.93;21.37;;;9.70;90.00;;;;;;5069710;28;20215;-92
2021/11/06 09:53:56;;;;;;;35.10;22.80;;;9.70;89.80;;;;;;5069291;28;20182;-92
2021/11/06 09:56:24;;;;;;;36.43;25.90;;;9.80;90.20;;;;;;5069142;28;20218;-93
2021/11/06 09:58:54;;;;;;;32.27;23.33;;;9.80;90.00;;;;;;5070607;28;20178;-92
2021/11/06 10:01:21;;;;;;;33.53;27.33;;;9.80;90.10;;;;;;5065387;28;20233;-92
2021/11/06 10:03:46;;;;;;;29.63;21.87;;;9.80;90.30;;;;;;5061042;28;20717;-91
2021/11/06 10:06:20;;;;;;;31.03;23.27;;;9.80;90.10;;;;;;5066700;28;20218;-91
2021/11/06 10:08:48;;;;;;;39.07;29.27;;;9.90;90.20;;;;;;5071228;28;20223;-92
2021/11/06 10:11:18;;;;;;;36.73;27.87;;;9.90;89.70;;;;;;5073198;28;20177;-92
2021/11/06 10:14:00;;;;;;;36.83;26.03;;;9.80;89.80;;;;;;5074733;28;20156;-92
2021/11/06 10:16:43;;;;;;;35.03;25.93;;;9.80;90.00;;;;;;5076338;28;20209;-92
2021/11/06 10:19:15;;;;;;;30.10;22.07;;;9.80;89.90;;;;;;5073757;28;20167;-92
2021/11/06 10:21:45;;;;;;;33.00;24.57;;;9.80;89.80;;;;;;5073808;28;20187;-92
2021/11/06 10:24:12;;;;;;;41.43;28.10;;;9.80;89.70;;;;;;5075799;28;20176;-93
2021/11/06 10:26:39;;;;;;;32.03;24.07;;;9.80;89.80;;;;;;5071727;28;20238;-92
2021/11/06 10:29:07;;;;;;;34.57;27.10;;;9.80;89.90;;;;;;5067523;28;20240;-92
2021/11/06 10:31:55;;;;;;;33.40;28.60;;;9.80;89.90;;;;;;5065676;28;20206;-92
2021/11/06 10:34:23;;;;;;;32.93;28.37;;;9.90;89.70;;;;;;5070969;28;20176;-92
2021/11/06 10:37:18;;;;;;;34.73;24.40;;;9.80;89.80;;;;;;5069240;28;20206;-93
2021/11/06 10:39:58;;;;;;;39.60;29.70;;;9.80;89.70;;;;;;5065285;28;20198;-91
2021/11/06 10:42:25;;;;;;;39.63;29.07;;;9.90;89.70;;;;;;5066771;28;20647;-91
2021/11/06 10:45:07;;;;;;;43.70;32.43;;;9.90;89.90;;;;;;5061992;28;20201;-90
2021/11/06 10:47:56;;;;;;;39.25;35.05;;;9.80;90.10;;;;;;5077672;28;20918;-91
2021/11/06 10:50:41;;;;;;;35.07;29.77;;;9.80;90.10;;;;;;5062299;28;20180;-91
2021/11/06 10:53:07;;;;;;;36.33;26.40;;;9.80;90.00;;;;;;5062515;28;20175;-91
2021/11/06 10:55:35;;;;;;;41.83;28.97;;;9.80;90.10;;;;;;5077764;28;20182;-91
2021/11/06 10:58:22;;;;;;;37.93;24.80;;;9.80;89.70;;;;;;5060453;28;20176;-91
2021/11/06 11:00:50;;;;;;;37.43;30.27;;;9.90;89.70;;;;;;5064748;28;20590;-90
2021/11/06 11:03:29;;;;;;;36.13;26.50;;;9.90;89.50;;;;;;5058838;28;20186;-91
2021/11/06 11:05:57;;;;;;;29.20;22.47;;;9.90;89.30;;;;;;5059577;28;20232;-91
2021/11/06 11:08:23;;;;;;;43.00;29.63;;;9.90;89.40;;;;;;5062428;28;20186;-92
2021/11/06 11:10:49;;;;;;;29.63;24.20;;;9.90;89.60;;;;;;5064885;28;20180;-91
2021/11/06 11:13:22;;;;;;;38.63;30.77;;;9.90;89.30;;;;;;5062046;28;20301;-91
2021/11/06 11:15:53;;;;;;;34.87;26.37;;;9.90;89.50;;;;;;5060585;28;20640;-90
2021/11/06 11:18:34;;;;;;;41.97;29.17;;;9.80;89.50;;;;;;5061566;28;20204;-90
2021/11/06 11:21:16;;;;;;;38.57;26.80;;;9.80;89.40;;;;;;5061097;28;20225;-91
2021/11/06 11:23:48;;;;;;;37.93;32.03;;;9.90;89.70;;;;;;5061833;28;20175;-90
2021/11/06 11:26:15;;;;;;;41.07;32.40;;;9.90;89.60;;;;;;5063172;28;20214;-91
2021/11/06 11:28:41;;;;;;;37.13;29.77;;;9.90;89.50;;;;;;5069380;28;20168;-92
2021/11/06 11:31:07;;;;;;;39.53;27.07;;;9.90;89.60;;;;;;5063909;28;20222;-91
2021/11/06 11:33:40;;;;;;;43.27;32.97;;;9.90;89.50;;;;;;5061274;28;20178;-90
2021/11/06 11:36:08;;;;;;;48.97;35.23;;;9.90;89.60;;;;;;5060779;28;20686;-90
2021/11/06 11:38:36;;;;;;;47.30;31.37;;;9.90;89.60;;;;;;5060027;28;20175;-91
2021/11/06 11:41:21;;;;;;;37.53;26.10;;;9.90;89.40;;;;;;5063510;28;20176;-92
2021/11/06 11:44:10;;;;;;;33.43;25.20;;;9.90;89.40;;;;;;5066231;28;20171;-90
2021/11/06 11:46:46;;;;;;;44.60;28.17;;;9.90;89.30;;;;;;5061744;28;20211;-91
2021/11/06 11:49:13;;;;;;;40.53;29.90;;;9.90;89.40;;;;;;5060705;28;20638;-91
2021/11/06 11:51:39;;;;;;;32.10;23.23;;;9.90;89.60;;;;;;5061697;28;20562;-92
2021/11/06 11:54:07;;;;;;;38.33;26.30;;;10.00;89.40;;;;;;5061955;28;20203;-92
2021/11/06 11:56:35;;;;;;;49.40;28.30;;;10.00;88.90;;;;;;5061831;28;20191;-91
2021/11/06 11:59:01;;;;;;;37.77;25.50;;;10.00;89.00;;;;;;5061351;28;20182;-91
2021/11/06 12:01:27;;;;;;;41.50;29.87;;;10.10;89.20;;;;;;5079330;28;20285;-91
2021/11/06 12:03:55;;;;;;;40.63;29.50;;;10.00;88.80;;;;;;5059291;28;20191;-91
2021/11/06 12:06:39;;;;;;;33.27;25.00;;;10.00;88.90;;;;;;5059870;28;20217;-92
2021/11/06 12:09:11;;;;;;;39.27;27.50;;;10.10;88.50;;;;;;5063262;28;20165;-91
2021/11/06 12:11:49;;;;;;;35.00;21.93;;;10.10;88.50;;;;;;5062642;28;20203;-92
2021/11/06 12:14:23;;;;;;;36.07;24.63;;;10.10;88.60;;;;;;5061182;28;20174;-92
2021/11/06 12:17:01;;;;;;;29.60;21.67;;;10.10;88.20;;;;;;5060034;28;20300;-91
2021/11/06 12:19:46;;;;;;;34.70;24.53;;;10.20;88.00;;;;;;5058349;28;20206;-92
2021/11/06 12:22:18;;;;;;;32.20;20.73;;;10.20;88.00;;;;;;5056508;28;20185;-90
2021/11/06 12:25:16;;;;;;;32.73;20.70;;;10.20;88.30;;;;;;5073504;28;20175;-89
2021/11/06 12:27:53;;;;;;;30.77;21.13;;;10.20;88.20;;;;;;5054908;28;20199;-91
2021/11/06 12:30:28;;;;;;;32.17;22.30;;;10.20;88.20;;;;;;5073506;28;20152;-90
2021/11/06 12:32:54;;;;;;;31.50;20.60;;;10.20;88.50;;;;;;5073502;28;20155;-91
2021/11/06 12:35:23;;;;;;;33.67;22.53;;;10.10;88.30;;;;;;5055619;28;20175;-90
2021/11/06 12:38:10;;;;;;;32.80;23.17;;;10.20;88.70;;;;;;5055385;28;20203;-91
2021/11/06 12:40:36;;;;;;;32.20;21.27;;;10.20;89.00;;;;;;5055365;28;20647;-89
2021/11/06 12:43:09;;;;;;;34.67;25.20;;;10.10;88.60;;;;;;5055977;28;20237;-90
2021/11/06 12:45:35;;;;;;;37.10;25.80;;;10.10;88.60;;;;;;5055098;28;20609;-90